createdAt,value
2022-10-24T06:51:37.855Z,5.60
2022-10-24T06:54:04.920Z,5.57
2022-10-24T06:56:31.548Z,8.90
2022-10-24T06:58:58.122Z,31.90
2022-10-24T07:01:25.927Z,9.32
2022-10-24T07:03:52.951Z,5.93
2022-10-24T07:06:24.542Z,8.23
2022-10-24T07:08:55.391Z,5.28
2022-10-24T07:11:21.994Z,4.32
2022-10-24T07:13:48.589Z,4.80
2022-10-24T07:16:15.421Z,3.90
2022-10-24T07:18:42.378Z,3.88
2022-10-24T07:21:17.998Z,3.92
2022-10-24T07:23:44.557Z,4.05
2022-10-24T07:26:12.718Z,3.05
2022-10-24T07:28:39.584Z,3.42
2022-10-24T07:31:06.306Z,2.95
2022-10-24T07:33:32.960Z,3.50
2022-10-24T07:35:59.636Z,3.08
2022-10-24T07:38:26.282Z,3.25
2022-10-24T07:40:52.895Z,2.70
2022-10-24T07:43:19.513Z,2.90
2022-10-24T07:45:49.120Z,3.70
2022-10-24T07:48:18.958Z,3.60
2022-10-24T07:50:46.368Z,3.80
2022-10-24T07:53:13.264Z,2.65
2022-10-24T07:55:43.399Z,2.70
2022-10-24T07:58:10.167Z,2.72
2022-10-24T08:00:39.094Z,2.55
2022-10-24T08:03:09.188Z,1.90
2022-10-24T08:05:35.768Z,2.53
2022-10-24T08:08:24.685Z,2.22
2022-10-24T08:10:49.024Z,2.80
2022-10-24T08:13:15.712Z,2.42
2022-10-24T08:15:42.306Z,2.63
2022-10-24T08:29:41.972Z,2.40
2022-10-24T08:32:08.561Z,13.48
2022-10-24T08:34:35.318Z,2.92
2022-10-24T08:37:01.932Z,2.63
2022-10-24T08:39:28.672Z,2.72
2022-10-24T08:42:00.513Z,3.03
2022-10-24T08:44:36.963Z,2.72
2022-10-24T08:47:13.500Z,3.10
2022-10-24T08:49:55.503Z,3.20
2022-10-24T08:52:41.048Z,2.30
2022-10-24T08:58:03.668Z,2.20
2022-10-24T09:00:32.367Z,3.22
2022-10-24T09:03:15.695Z,3.10
2022-10-24T09:05:45.923Z,2.55
2022-10-24T09:08:52.347Z,2.63
2022-10-24T09:11:50.094Z,3.97
2022-10-24T09:14:21.538Z,2.33
2022-10-24T09:17:16.881Z,2.35
2022-10-24T09:19:47.034Z,2.25
2022-10-24T09:22:13.739Z,3.10
2022-10-24T09:24:53.263Z,2.58
2022-10-24T09:27:29.499Z,2.58
2022-10-24T09:29:57.507Z,2.35
2022-10-24T09:32:28.443Z,3.45
2022-10-24T09:34:55.071Z,2.42
2022-10-24T09:37:46.104Z,3.00
2022-10-24T09:40:30.326Z,2.53
2022-10-24T09:43:15.682Z,2.85
2022-10-24T09:45:52.589Z,3.03
2022-10-24T09:48:43.425Z,2.75
2022-10-24T09:51:10.234Z,3.28
2022-10-24T09:53:40.991Z,2.60
2022-10-24T09:56:12.801Z,2.67
2022-10-24T09:58:39.691Z,2.28
2022-10-24T10:01:10.154Z,2.45
2022-10-24T10:03:36.828Z,2.25
2022-10-24T10:06:23.666Z,2.78
2022-10-24T10:08:57.479Z,2.67
2022-10-24T10:11:35.086Z,2.60
2022-10-24T10:14:04.262Z,2.92
2022-10-24T10:16:33.072Z,3.10
2022-10-24T10:19:20.918Z,1.92
2022-10-24T10:22:29.913Z,3.40
2022-10-24T10:24:58.617Z,2.90
2022-10-24T10:27:31.401Z,3.95
2022-10-24T10:30:14.952Z,2.70
2022-10-24T10:32:57.008Z,2.57
2022-10-24T10:35:33.030Z,2.17
2022-10-24T10:38:08.749Z,2.58
2022-10-24T10:40:40.131Z,2.92
2022-10-24T10:43:21.973Z,2.35
2022-10-24T10:45:55.445Z,3.10
2022-10-24T10:48:25.868Z,3.03
2022-10-24T10:50:58.404Z,2.55
2022-10-24T10:53:46.333Z,2.33
2022-10-24T10:56:22.013Z,2.50
2022-10-24T10:58:54.531Z,2.50
2022-10-24T11:01:57.097Z,2.72
2022-10-24T11:04:38.586Z,2.58
2022-10-24T11:07:17.362Z,2.90
2022-10-24T11:09:45.566Z,2.00
2022-10-24T11:12:32.279Z,2.50
2022-10-24T11:15:15.483Z,2.30
2022-10-24T11:18:06.175Z,2.22
2022-10-24T11:20:35.746Z,2.47
2022-10-24T11:24:11.172Z,2.67
2022-10-24T11:27:03.154Z,2.42
2022-10-24T11:29:35.649Z,2.15
2022-10-24T11:32:14.999Z,2.25
2022-10-24T11:34:51.719Z,2.65
2022-10-24T11:37:19.450Z,2.42
2022-10-24T11:39:57.828Z,3.08
2022-10-24T11:42:30.664Z,2.35
2022-10-24T11:45:07.711Z,2.65
2022-10-24T11:47:44.287Z,2.22
2022-10-24T11:50:38.548Z,2.60
2022-10-24T11:53:29.364Z,2.45
2022-10-24T11:56:24.862Z,2.10
2022-10-24T11:58:57.248Z,3.53
2022-10-24T12:01:36.026Z,2.60
2022-10-24T12:04:36.872Z,2.70
2022-10-24T12:07:47.638Z,2.35
2022-10-24T12:10:26.364Z,3.03
2022-10-24T12:17:01.734Z,2.30
2022-10-24T12:19:28.655Z,2.22
2022-10-24T12:21:59.202Z,3.08
2022-10-24T12:24:34.554Z,2.88
2022-10-24T12:27:02.822Z,2.88
2022-10-24T12:29:33.531Z,2.30
2022-10-24T12:32:20.312Z,2.53
2022-10-24T12:35:12.259Z,2.70
2022-10-24T12:37:46.764Z,2.25
2022-10-24T12:40:45.678Z,2.53
2022-10-24T12:43:15.019Z,2.85
2022-10-24T12:45:41.596Z,3.60
2022-10-24T12:48:21.867Z,2.78
2022-10-24T12:50:56.604Z,3.13
2022-10-24T12:53:50.309Z,2.72
2022-10-24T12:59:02.644Z,2.45
2022-10-24T13:01:35.721Z,2.28
2022-10-24T13:04:37.616Z,2.60
2022-10-24T13:07:41.652Z,2.95
2022-10-24T13:10:30.071Z,2.35
2022-10-24T13:13:14.544Z,2.63
2022-10-24T13:18:24.637Z,2.53
2022-10-24T13:21:12.704Z,2.45
2022-10-24T13:23:42.400Z,2.60
2022-10-24T13:26:09.923Z,2.65
2022-10-24T13:28:39.507Z,3.10
2022-10-24T13:31:06.263Z,2.83
2022-10-24T13:33:33.045Z,1.95
2022-10-24T13:36:17.872Z,2.70
2022-10-24T13:38:51.192Z,2.65
2022-10-24T13:41:36.381Z,2.50
2022-10-24T13:44:29.225Z,2.30
2022-10-24T13:47:00.140Z,2.60
2022-10-24T13:49:37.028Z,2.15
2022-10-24T13:52:15.779Z,2.25
2022-10-24T13:54:43.849Z,3.22
2022-10-24T13:57:56.659Z,3.03
2022-10-24T14:00:32.070Z,2.63
2022-10-24T14:03:00.019Z,2.78
2022-10-24T14:05:41.048Z,2.67
2022-10-24T14:08:07.808Z,3.13
2022-10-24T14:10:34.419Z,2.80
2022-10-24T14:13:01.128Z,3.40
2022-10-24T14:15:31.228Z,3.00
2022-10-24T14:18:02.551Z,3.28
2022-10-24T14:20:33.983Z,3.20
2022-10-24T14:23:00.770Z,3.63
2022-10-24T14:25:33.175Z,4.10
2022-10-24T14:28:01.866Z,4.45
2022-10-24T14:30:33.587Z,4.05
2022-10-24T14:33:20.891Z,4.50
2022-10-24T14:35:50.362Z,4.70
2022-10-24T14:38:19.043Z,4.03
2022-10-24T14:40:46.314Z,3.40
2022-10-24T14:43:17.800Z,3.28
2022-10-24T14:46:02.512Z,3.58
2022-10-24T14:48:29.852Z,3.17
2022-10-24T14:51:39.377Z,2.70
2022-10-24T14:54:18.568Z,2.95
2022-10-24T14:56:45.272Z,3.25
2022-10-24T14:59:27.996Z,2.42
2022-10-24T15:01:59.414Z,3.15
2022-10-24T15:04:37.919Z,2.55
2022-10-24T15:07:20.935Z,3.28
2022-10-24T15:10:00.783Z,7.45
2022-10-24T15:12:51.703Z,6.85
2022-10-24T15:15:26.335Z,10.73
2022-10-24T15:18:14.155Z,11.25
2022-10-24T15:20:40.848Z,8.98
2022-10-24T15:23:08.102Z,9.50
2022-10-24T15:25:37.993Z,9.23
2022-10-24T15:28:07.230Z,12.38
2022-10-24T15:30:37.531Z,12.45
2022-10-24T15:33:05.398Z,10.65
2022-10-24T15:35:37.673Z,8.45
2022-10-24T15:38:11.089Z,9.75
2022-10-24T15:40:37.779Z,7.67
2022-10-24T15:43:04.400Z,7.57
2022-10-24T15:45:31.039Z,11.68
2022-10-24T15:47:57.588Z,13.85
2022-10-24T15:50:24.492Z,11.57
2022-10-24T15:52:53.351Z,8.73
2022-10-24T15:55:24.171Z,7.85
2022-10-24T15:57:50.919Z,13.25
2022-10-24T16:00:20.044Z,14.45
2022-10-24T16:02:48.971Z,18.35
2022-10-24T16:05:39.740Z,19.67
2022-10-24T16:08:06.410Z,15.15
2022-10-24T16:10:33.142Z,13.70
2022-10-24T16:12:59.729Z,13.18
2022-10-24T16:15:29.957Z,17.60
2022-10-24T16:17:56.566Z,11.10
2022-10-24T16:20:23.268Z,11.68
2022-10-24T16:22:50.043Z,14.30
2022-10-24T16:25:18.925Z,13.35
2022-10-24T16:27:46.022Z,18.40
2022-10-24T16:30:13.279Z,12.02
2022-10-24T16:32:39.999Z,8.07
2022-10-24T16:35:08.019Z,7.70
2022-10-24T16:37:34.855Z,7.82
2022-10-24T16:40:01.576Z,9.15
2022-10-24T16:42:28.517Z,7.30
2022-10-24T16:44:55.210Z,6.65
2022-10-24T16:47:21.919Z,6.53
2022-10-24T16:49:48.502Z,6.55
2022-10-24T16:52:15.071Z,6.78
2022-10-24T16:54:41.664Z,8.73
2022-10-24T16:57:08.294Z,10.07
2022-10-24T16:59:35.004Z,17.67
2022-10-24T17:02:02.197Z,15.60
2022-10-24T17:04:33.536Z,16.25
2022-10-24T17:07:00.411Z,16.25
2022-10-24T17:09:27.016Z,24.17
2022-10-24T17:11:56.480Z,37.15
2022-10-24T17:14:23.269Z,28.58
2022-10-24T17:16:49.895Z,20.23
2022-10-24T17:19:17.647Z,35.17
2022-10-24T17:21:48.769Z,16.05
2022-10-24T17:24:18.072Z,10.20
2022-10-24T17:26:44.838Z,17.45
2022-10-24T17:29:13.580Z,15.10
2022-10-24T17:31:40.292Z,18.38
2022-10-24T17:34:07.051Z,17.33
2022-10-24T17:36:34.919Z,27.75
2022-10-24T17:39:10.690Z,13.98
2022-10-24T17:41:39.201Z,14.48
2022-10-24T17:44:06.196Z,12.10
2022-10-24T17:46:33.176Z,9.65
2022-10-24T17:48:59.828Z,7.60
2022-10-24T17:51:26.777Z,9.13
2022-10-24T17:53:53.580Z,8.05
2022-10-24T17:56:23.236Z,7.82
2022-10-24T17:58:52.367Z,6.90
2022-10-24T18:01:19.266Z,7.85
2022-10-24T18:03:45.892Z,7.63
2022-10-24T18:06:12.744Z,6.97
2022-10-24T18:08:39.442Z,7.82
2022-10-24T18:11:08.992Z,7.88
2022-10-24T18:13:39.100Z,7.47
2022-10-24T18:16:09.634Z,9.35
2022-10-24T18:18:36.442Z,10.82
2022-10-24T18:21:10.989Z,8.38
2022-10-24T18:23:37.912Z,7.72
2022-10-24T18:26:24.243Z,7.78
2022-10-24T18:28:52.691Z,9.40
2022-10-24T18:31:24.596Z,7.97
2022-10-24T18:33:51.337Z,8.13
2022-10-24T18:36:19.892Z,7.03
2022-10-24T18:38:46.532Z,9.13
2022-10-24T18:41:31.653Z,6.60
2022-10-24T18:43:59.809Z,5.90
2022-10-24T18:46:27.166Z,5.40
2022-10-24T18:48:53.978Z,5.68
2022-10-24T18:51:42.763Z,5.63
2022-10-24T18:54:14.901Z,6.93
2022-10-24T18:56:42.728Z,6.28
2022-10-24T18:59:13.496Z,6.82
2022-10-24T19:02:00.972Z,7.20
2022-10-24T19:04:27.666Z,6.43
2022-10-24T19:06:56.403Z,5.00
2022-10-24T19:09:23.835Z,5.43
2022-10-24T19:11:52.601Z,5.97
2022-10-24T19:14:20.524Z,5.07
2022-10-24T19:16:48.140Z,6.45
2022-10-24T19:19:16.416Z,5.00
2022-10-24T19:21:44.344Z,5.05
2022-10-24T19:24:13.143Z,8.10
2022-10-24T19:26:40.101Z,5.90
2022-10-24T19:29:06.718Z,6.15
2022-10-24T19:31:33.364Z,6.93
2022-10-24T19:33:59.937Z,5.47
2022-10-24T19:38:58.155Z,5.05
2022-10-24T19:41:24.804Z,5.22
2022-10-24T19:43:51.414Z,7.68
2022-10-24T19:46:20.325Z,6.75
2022-10-24T19:48:49.354Z,5.90
2022-10-24T19:51:16.787Z,5.15
2022-10-24T19:53:43.875Z,4.82
2022-10-24T19:56:14.971Z,5.32
2022-10-24T19:58:41.911Z,5.50
2022-10-24T20:01:19.325Z,7.38
2022-10-24T20:03:46.869Z,7.03
2022-10-24T20:06:13.662Z,7.00
2022-10-24T20:08:40.516Z,6.65
2022-10-24T20:11:07.255Z,15.50
2022-10-24T20:13:33.989Z,8.68
2022-10-24T20:16:05.587Z,7.90
2022-10-24T20:18:34.754Z,8.13
2022-10-24T20:21:05.804Z,6.13
2022-10-24T20:23:32.748Z,8.18
2022-10-24T20:26:13.355Z,9.43
2022-10-24T20:28:43.230Z,8.15
2022-10-24T20:31:39.594Z,6.30
2022-10-24T20:34:09.780Z,12.32
2022-10-24T20:36:37.659Z,6.15
2022-10-24T20:39:05.395Z,7.45
2022-10-24T20:41:32.174Z,6.97
2022-10-24T20:43:58.764Z,6.60
2022-10-24T20:46:25.437Z,5.80
2022-10-24T20:48:53.505Z,7.50
2022-10-24T20:51:20.316Z,7.25
2022-10-24T20:53:46.967Z,7.38
2022-10-24T20:56:18.068Z,7.88
2022-10-24T20:58:44.975Z,8.45
2022-10-24T21:01:13.700Z,8.75
2022-10-24T21:03:40.380Z,7.03
2022-10-24T21:06:13.944Z,5.43
2022-10-24T21:08:40.615Z,6.63
2022-10-24T21:11:07.621Z,5.90
2022-10-24T21:13:34.285Z,6.03
2022-10-24T21:16:02.188Z,5.65
2022-10-24T21:18:28.783Z,5.70
2022-10-24T21:20:55.408Z,6.85
2022-10-24T21:23:22.076Z,7.50
2022-10-24T21:25:48.678Z,7.00
2022-10-24T21:28:15.388Z,6.68
2022-10-24T21:30:42.006Z,6.63
2022-10-24T21:33:10.691Z,6.82
